sensor_id;sensor_type;location;lat;lon;timestamp;temperature;humidity
20759;DHT22;10539;53.686;9.158;2023-07-13T00:01:43;18.20;99.90
20759;DHT22;10539;53.686;9.158;2023-07-13T00:04:09;18.20;99.90
20759;DHT22;10539;53.686;9.158;2023-07-13T00:06:35;18.20;99.90
20759;DHT22;10539;53.686;9.158;2023-07-13T00:09:00;18.20;99.90
20759;DHT22;10539;53.686;9.158;2023-07-13T00:11:27;18.20;99.90
20759;DHT22;10539;53.686;9.158;2023-07-13T00:13:53;18.10;99.90
20759;DHT22;10539;53.686;9.158;2023-07-13T00:16:19;18.10;99.90
20759;DHT22;10539;53.686;9.158;2023-07-13T00:18:45;18.10;99.90
20759;DHT22;10539;53.686;9.158;2023-07-13T00:21:12;18.10;99.90
20759;DHT22;10539;53.686;9.158;2023-07-13T00:23:40;18.10;99.90
20759;DHT22;10539;53.686;9.158;2023-07-13T00:26:08;18.10;99.90
20759;DHT22;10539;53.686;9.158;2023-07-13T00:28:34;18.10;99.90
20759;DHT22;10539;53.686;9.158;2023-07-13T00:31:00;18.10;99.90
20759;DHT22;10539;53.686;9.158;2023-07-13T00:33:28;18.10;99.90
20759;DHT22;10539;53.686;9.158;2023-07-13T00:35:55;18.10;99.90
20759;DHT22;10539;53.686;9.158;2023-07-13T00:38:21;18.10;99.90
20759;DHT22;10539;53.686;9.158;2023-07-13T00:40:47;18.00;99.90
20759;DHT22;10539;53.686;9.158;2023-07-13T00:43:21;18.00;99.90
20759;DHT22;10539;53.686;9.158;2023-07-13T00:48:17;18.00;99.90
20759;DHT22;10539;53.686;9.158;2023-07-13T00:50:44;17.90;99.90
20759;DHT22;10539;53.686;9.158;2023-07-13T00:53:12;17.90;99.90
20759;DHT22;10539;53.686;9.158;2023-07-13T00:55:39;17.90;99.90
20759;DHT22;10539;53.686;9.158;2023-07-13T00:58:05;17.80;99.90
20759;DHT22;10539;53.686;9.158;2023-07-13T01:00:34;17.80;99.90
20759;DHT22;10539;53.686;9.158;2023-07-13T01:03:00;17.80;99.90
20759;DHT22;10539;53.686;9.158;2023-07-13T01:05:32;17.70;99.90
20759;DHT22;10539;53.686;9.158;2023-07-13T01:07:59;17.70;99.90
20759;DHT22;10539;53.686;9.158;2023-07-13T01:10:25;17.70;99.90
20759;DHT22;10539;53.686;9.158;2023-07-13T01:12:51;17.60;99.90
20759;DHT22;10539;53.686;9.158;2023-07-13T01:15:43;17.60;99.90
20759;DHT22;10539;53.686;9.158;2023-07-13T01:18:14;17.60;99.90
20759;DHT22;10539;53.686;9.158;2023-07-13T01:20:41;17.60;99.90
20759;DHT22;10539;53.686;9.158;2023-07-13T01:23:10;17.60;99.90
20759;DHT22;10539;53.686;9.158;2023-07-13T01:25:37;17.50;99.90
20759;DHT22;10539;53.686;9.158;2023-07-13T01:28:08;17.50;99.90
20759;DHT22;10539;53.686;9.158;2023-07-13T01:30:38;17.50;99.90
20759;DHT22;10539;53.686;9.158;2023-07-13T01:33:07;17.50;99.90
20759;DHT22;10539;53.686;9.158;2023-07-13T01:35:33;17.50;99.90
20759;DHT22;10539;53.686;9.158;2023-07-13T01:37:59;17.50;99.90
20759;DHT22;10539;53.686;9.158;2023-07-13T01:40:27;17.40;99.90
20759;DHT22;10539;53.686;9.158;2023-07-13T01:42:53;17.40;99.90
20759;DHT22;10539;53.686;9.158;2023-07-13T01:45:18;17.40;99.90
20759;DHT22;10539;53.686;9.158;2023-07-13T01:47:44;17.40;99.90
20759;DHT22;10539;53.686;9.158;2023-07-13T01:50:10;17.40;99.90
20759;DHT22;10539;53.686;9.158;2023-07-13T01:52:36;17.40;99.90
20759;DHT22;10539;53.686;9.158;2023-07-13T01:55:02;17.40;99.90
20759;DHT22;10539;53.686;9.158;2023-07-13T01:57:28;17.40;99.90
20759;DHT22;10539;53.686;9.158;2023-07-13T01:59:54;17.40;99.90
20759;DHT22;10539;53.686;9.158;2023-07-13T02:02:19;17.40;99.90
20759;DHT22;10539;53.686;9.158;2023-07-13T02:04:45;17.40;99.90
20759;DHT22;10539;53.686;9.158;2023-07-13T02:07:11;17.30;99.90
20759;DHT22;10539;53.686;9.158;2023-07-13T02:09:37;17.30;99.90
20759;DHT22;10539;53.686;9.158;2023-07-13T02:12:03;17.30;99.90
20759;DHT22;10539;53.686;9.158;2023-07-13T02:14:29;17.30;99.90
20759;DHT22;10539;53.686;9.158;2023-07-13T02:16:54;17.30;99.90
20759;DHT22;10539;53.686;9.158;2023-07-13T02:19:20;17.30;99.90
20759;DHT22;10539;53.686;9.158;2023-07-13T02:21:46;17.30;99.90
20759;DHT22;10539;53.686;9.158;2023-07-13T02:24:12;17.30;99.90
20759;DHT22;10539;53.686;9.158;2023-07-13T02:26:43;17.30;99.90
20759;DHT22;10539;53.686;9.158;2023-07-13T02:29:10;17.30;99.90
20759;DHT22;10539;53.686;9.158;2023-07-13T02:31:36;17.30;99.90
20759;DHT22;10539;53.686;9.158;2023-07-13T02:34:02;17.30;99.90
20759;DHT22;10539;53.686;9.158;2023-07-13T02:36:28;17.30;99.90
20759;DHT22;10539;53.686;9.158;2023-07-13T02:38:54;17.30;99.90
20759;DHT22;10539;53.686;9.158;2023-07-13T02:41:20;17.30;99.90
20759;DHT22;10539;53.686;9.158;2023-07-13T02:43:46;17.30;99.90
20759;DHT22;10539;53.686;9.158;2023-07-13T02:46:12;17.30;99.90
20759;DHT22;10539;53.686;9.158;2023-07-13T02:48:39;17.30;99.90
20759;DHT22;10539;53.686;9.158;2023-07-13T02:51:05;17.20;99.90
20759;DHT22;10539;53.686;9.158;2023-07-13T02:53:30;17.20;99.90
20759;DHT22;10539;53.686;9.158;2023-07-13T02:55:56;17.20;99.90
20759;DHT22;10539;53.686;9.158;2023-07-13T02:58:22;17.10;99.90
20759;DHT22;10539;53.686;9.158;2023-07-13T03:00:48;17.10;99.90
20759;DHT22;10539;53.686;9.158;2023-07-13T03:03:16;17.10;99.90
20759;DHT22;10539;53.686;9.158;2023-07-13T03:05:43;17.10;99.90
20759;DHT22;10539;53.686;9.158;2023-07-13T03:08:16;17.10;99.90
20759;DHT22;10539;53.686;9.158;2023-07-13T03:10:43;17.10;99.90
20759;DHT22;10539;53.686;9.158;2023-07-13T03:13:08;17.10;99.90
20759;DHT22;10539;53.686;9.158;2023-07-13T03:15:34;17.10;99.90
20759;DHT22;10539;53.686;9.158;2023-07-13T03:17:59;17.10;99.90
20759;DHT22;10539;53.686;9.158;2023-07-13T03:20:25;17.10;99.90
20759;DHT22;10539;53.686;9.158;2023-07-13T03:22:51;17.10;99.90
20759;DHT22;10539;53.686;9.158;2023-07-13T03:25:17;17.10;99.90
20759;DHT22;10539;53.686;9.158;2023-07-13T03:27:43;17.10;99.90
20759;DHT22;10539;53.686;9.158;2023-07-13T03:30:09;17.10;99.90
20759;DHT22;10539;53.686;9.158;2023-07-13T03:32:36;17.10;99.90
20759;DHT22;10539;53.686;9.158;2023-07-13T03:35:02;17.10;99.90
20759;DHT22;10539;53.686;9.158;2023-07-13T03:37:28;17.00;99.90
20759;DHT22;10539;53.686;9.158;2023-07-13T03:39:54;17.00;99.90
20759;DHT22;10539;53.686;9.158;2023-07-13T03:42:20;17.00;99.90
20759;DHT22;10539;53.686;9.158;2023-07-13T03:44:45;17.00;99.90
20759;DHT22;10539;53.686;9.158;2023-07-13T03:47:18;16.90;99.90
20759;DHT22;10539;53.686;9.158;2023-07-13T03:49:43;16.90;99.90
20759;DHT22;10539;53.686;9.158;2023-07-13T03:52:11;16.90;99.90
20759;DHT22;10539;53.686;9.158;2023-07-13T03:54:36;16.90;99.90
20759;DHT22;10539;53.686;9.158;2023-07-13T03:57:02;16.90;99.90
20759;DHT22;10539;53.686;9.158;2023-07-13T03:59:28;16.90;99.90
20759;DHT22;10539;53.686;9.158;2023-07-13T04:01:54;16.90;99.90
20759;DHT22;10539;53.686;9.158;2023-07-13T04:04:20;17.00;99.90
20759;DHT22;10539;53.686;9.158;2023-07-13T04:06:46;17.00;99.90
20759;DHT22;10539;53.686;9.158;2023-07-13T04:09:12;17.00;99.90
20759;DHT22;10539;53.686;9.158;2023-07-13T04:11:38;17.00;99.90
20759;DHT22;10539;53.686;9.158;2023-07-13T04:14:04;17.00;99.90
20759;DHT22;10539;53.686;9.158;2023-07-13T04:16:30;17.10;99.90
20759;DHT22;10539;53.686;9.158;2023-07-13T04:18:56;17.10;99.90
20759;DHT22;10539;53.686;9.158;2023-07-13T04:21:29;17.10;99.90
20759;DHT22;10539;53.686;9.158;2023-07-13T04:23:55;17.10;99.90
20759;DHT22;10539;53.686;9.158;2023-07-13T04:26:22;17.20;99.90
20759;DHT22;10539;53.686;9.158;2023-07-13T04:28:49;17.20;99.90
20759;DHT22;10539;53.686;9.158;2023-07-13T04:31:15;17.20;99.90
20759;DHT22;10539;53.686;9.158;2023-07-13T04:33:41;17.30;99.90
20759;DHT22;10539;53.686;9.158;2023-07-13T04:36:09;17.30;99.90
20759;DHT22;10539;53.686;9.158;2023-07-13T04:38:36;17.30;99.90
20759;DHT22;10539;53.686;9.158;2023-07-13T04:41:04;17.30;99.90
20759;DHT22;10539;53.686;9.158;2023-07-13T04:43:31;17.30;99.90
20759;DHT22;10539;53.686;9.158;2023-07-13T04:46:06;17.30;99.90
20759;DHT22;10539;53.686;9.158;2023-07-13T04:48:33;17.30;99.90
20759;DHT22;10539;53.686;9.158;2023-07-13T04:50:59;17.30;99.90
20759;DHT22;10539;53.686;9.158;2023-07-13T04:53:25;17.40;99.90
20759;DHT22;10539;53.686;9.158;2023-07-13T04:55:51;17.40;99.90
20759;DHT22;10539;53.686;9.158;2023-07-13T04:58:17;17.40;99.90
20759;DHT22;10539;53.686;9.158;2023-07-13T05:00:42;17.40;99.90
20759;DHT22;10539;53.686;9.158;2023-07-13T05:03:08;17.40;99.90
20759;DHT22;10539;53.686;9.158;2023-07-13T05:05:34;17.50;99.90
20759;DHT22;10539;53.686;9.158;2023-07-13T05:08:00;17.50;99.90
20759;DHT22;10539;53.686;9.158;2023-07-13T05:10:26;17.50;99.90
20759;DHT22;10539;53.686;9.158;2023-07-13T05:12:52;17.50;99.90
20759;DHT22;10539;53.686;9.158;2023-07-13T05:15:18;17.50;99.90
20759;DHT22;10539;53.686;9.158;2023-07-13T05:17:50;17.50;99.90
20759;DHT22;10539;53.686;9.158;2023-07-13T05:20:17;17.50;99.90
20759;DHT22;10539;53.686;9.158;2023-07-13T05:22:43;17.50;99.90
20759;DHT22;10539;53.686;9.158;2023-07-13T05:25:09;17.50;99.90
20759;DHT22;10539;53.686;9.158;2023-07-13T05:27:35;17.50;99.90
20759;DHT22;10539;53.686;9.158;2023-07-13T05:30:03;17.60;99.90
20759;DHT22;10539;53.686;9.158;2023-07-13T05:32:29;17.60;99.90
20759;DHT22;10539;53.686;9.158;2023-07-13T05:34:55;17.70;99.90
20759;DHT22;10539;53.686;9.158;2023-07-13T05:37:21;17.70;99.90
20759;DHT22;10539;53.686;9.158;2023-07-13T05:39:46;17.70;99.90
20759;DHT22;10539;53.686;9.158;2023-07-13T05:42:12;17.70;99.90
20759;DHT22;10539;53.686;9.158;2023-07-13T05:44:38;17.80;99.90
20759;DHT22;10539;53.686;9.158;2023-07-13T05:47:04;17.80;99.90
20759;DHT22;10539;53.686;9.158;2023-07-13T05:49:30;17.80;99.90
20759;DHT22;10539;53.686;9.158;2023-07-13T05:51:56;17.80;99.90
20759;DHT22;10539;53.686;9.158;2023-07-13T05:54:22;17.80;99.90
20759;DHT22;10539;53.686;9.158;2023-07-13T05:56:48;17.80;99.90
20759;DHT22;10539;53.686;9.158;2023-07-13T05:59:14;17.80;99.90
20759;DHT22;10539;53.686;9.158;2023-07-13T06:01:41;17.80;99.90
20759;DHT22;10539;53.686;9.158;2023-07-13T06:04:07;17.80;99.90
20759;DHT22;10539;53.686;9.158;2023-07-13T06:06:33;17.90;99.90
20759;DHT22;10539;53.686;9.158;2023-07-13T06:08:59;17.80;99.90
20759;DHT22;10539;53.686;9.158;2023-07-13T06:11:26;17.90;99.90
20759;DHT22;10539;53.686;9.158;2023-07-13T06:13:53;17.90;99.90
20759;DHT22;10539;53.686;9.158;2023-07-13T06:16:20;18.00;99.90
20759;DHT22;10539;53.686;9.158;2023-07-13T06:18:46;18.00;99.90
20759;DHT22;10539;53.686;9.158;2023-07-13T06:21:17;18.00;99.90
20759;DHT22;10539;53.686;9.158;2023-07-13T06:23:44;18.00;99.90
20759;DHT22;10539;53.686;9.158;2023-07-13T06:26:11;18.10;99.90
20759;DHT22;10539;53.686;9.158;2023-07-13T06:28:37;18.20;99.90
20759;DHT22;10539;53.686;9.158;2023-07-13T06:31:06;18.20;99.90
20759;DHT22;10539;53.686;9.158;2023-07-13T06:33:32;18.20;99.90
20759;DHT22;10539;53.686;9.158;2023-07-13T06:35:58;18.30;99.90
20759;DHT22;10539;53.686;9.158;2023-07-13T06:38:24;18.30;99.90
20759;DHT22;10539;53.686;9.158;2023-07-13T06:40:50;18.30;99.90
20759;DHT22;10539;53.686;9.158;2023-07-13T06:43:16;18.30;99.90
20759;DHT22;10539;53.686;9.158;2023-07-13T06:45:45;18.30;99.90
20759;DHT22;10539;53.686;9.158;2023-07-13T06:48:16;18.40;99.90
20759;DHT22;10539;53.686;9.158;2023-07-13T06:50:42;18.60;99.90
20759;DHT22;10539;53.686;9.158;2023-07-13T06:53:09;18.60;99.90
20759;DHT22;10539;53.686;9.158;2023-07-13T06:55:35;18.70;99.90
20759;DHT22;10539;53.686;9.158;2023-07-13T06:58:01;18.70;99.90
20759;DHT22;10539;53.686;9.158;2023-07-13T07:00:27;18.80;99.90
20759;DHT22;10539;53.686;9.158;2023-07-13T07:02:52;18.90;99.90
20759;DHT22;10539;53.686;9.158;2023-07-13T07:05:18;19.00;99.90
20759;DHT22;10539;53.686;9.158;2023-07-13T07:07:51;19.20;99.90
20759;DHT22;10539;53.686;9.158;2023-07-13T07:10:18;19.80;99.90
20759;DHT22;10539;53.686;9.158;2023-07-13T07:12:44;20.60;99.90
20759;DHT22;10539;53.686;9.158;2023-07-13T07:15:10;21.30;99.90
20759;DHT22;10539;53.686;9.158;2023-07-13T07:17:36;21.90;99.90
20759;DHT22;10539;53.686;9.158;2023-07-13T07:20:02;21.90;99.90
20759;DHT22;10539;53.686;9.158;2023-07-13T07:22:29;21.80;99.90
20759;DHT22;10539;53.686;9.158;2023-07-13T07:24:56;21.60;99.90
20759;DHT22;10539;53.686;9.158;2023-07-13T07:27:23;21.30;99.90
20759;DHT22;10539;53.686;9.158;2023-07-13T07:29:48;20.90;99.90
20759;DHT22;10539;53.686;9.158;2023-07-13T07:32:14;20.70;99.90
20759;DHT22;10539;53.686;9.158;2023-07-13T07:34:40;20.60;99.90
20759;DHT22;10539;53.686;9.158;2023-07-13T07:37:06;20.50;99.90
20759;DHT22;10539;53.686;9.158;2023-07-13T07:39:32;20.50;99.90
20759;DHT22;10539;53.686;9.158;2023-07-13T07:41:58;20.70;99.90
20759;DHT22;10539;53.686;9.158;2023-07-13T07:44:24;21.00;99.90
20759;DHT22;10539;53.686;9.158;2023-07-13T07:46:50;21.50;99.90
20759;DHT22;10539;53.686;9.158;2023-07-13T07:49:16;21.80;99.90
20759;DHT22;10539;53.686;9.158;2023-07-13T07:51:42;21.90;99.90
20759;DHT22;10539;53.686;9.158;2023-07-13T07:54:08;21.80;99.90
20759;DHT22;10539;53.686;9.158;2023-07-13T07:56:33;21.80;99.90
20759;DHT22;10539;53.686;9.158;2023-07-13T07:58:59;21.70;99.90
20759;DHT22;10539;53.686;9.158;2023-07-13T08:01:25;21.50;99.90
20759;DHT22;10539;53.686;9.158;2023-07-13T08:03:51;21.30;99.90
20759;DHT22;10539;53.686;9.158;2023-07-13T08:06:17;21.20;99.90
20759;DHT22;10539;53.686;9.158;2023-07-13T08:08:45;21.20;99.90
20759;DHT22;10539;53.686;9.158;2023-07-13T08:11:11;21.20;99.90
20759;DHT22;10539;53.686;9.158;2023-07-13T08:13:37;21.20;99.90
20759;DHT22;10539;53.686;9.158;2023-07-13T08:16:06;21.20;99.90
20759;DHT22;10539;53.686;9.158;2023-07-13T08:18:32;21.20;99.90
20759;DHT22;10539;53.686;9.158;2023-07-13T08:21:02;21.20;99.90
20759;DHT22;10539;53.686;9.158;2023-07-13T08:23:28;21.30;99.90
20759;DHT22;10539;53.686;9.158;2023-07-13T08:25:55;21.50;99.90
20759;DHT22;10539;53.686;9.158;2023-07-13T08:28:21;21.60;99.90
20759;DHT22;10539;53.686;9.158;2023-07-13T08:30:48;21.50;99.90
20759;DHT22;10539;53.686;9.158;2023-07-13T08:33:18;21.60;99.90
20759;DHT22;10539;53.686;9.158;2023-07-13T08:35:48;21.70;99.90
20759;DHT22;10539;53.686;9.158;2023-07-13T08:38:15;21.80;99.90
20759;DHT22;10539;53.686;9.158;2023-07-13T08:40:41;21.90;99.90
20759;DHT22;10539;53.686;9.158;2023-07-13T08:43:25;21.90;99.90
20759;DHT22;10539;53.686;9.158;2023-07-13T08:46:02;22.00;99.90
20759;DHT22;10539;53.686;9.158;2023-07-13T08:48:41;22.10;99.90
20759;DHT22;10539;53.686;9.158;2023-07-13T08:54:00;22.30;99.90
20759;DHT22;10539;53.686;9.158;2023-07-13T08:56:29;22.30;99.90
20759;DHT22;10539;53.686;9.158;2023-07-13T08:58:58;22.40;99.90
20759;DHT22;10539;53.686;9.158;2023-07-13T09:01:40;22.40;99.90
20759;DHT22;10539;53.686;9.158;2023-07-13T09:04:14;22.30;99.90
20759;DHT22;10539;53.686;9.158;2023-07-13T09:12:14;22.80;99.90
20759;DHT22;10539;53.686;9.158;2023-07-13T09:17:16;23.00;99.90
20759;DHT22;10539;53.686;9.158;2023-07-13T09:19:43;22.90;99.90
20759;DHT22;10539;53.686;9.158;2023-07-13T09:22:17;22.80;99.90
20759;DHT22;10539;53.686;9.158;2023-07-13T09:27:43;22.70;99.90
20759;DHT22;10539;53.686;9.158;2023-07-13T09:30:33;22.60;99.90
20759;DHT22;10539;53.686;9.158;2023-07-13T09:33:00;22.40;99.90
20759;DHT22;10539;53.686;9.158;2023-07-13T09:35:27;22.30;99.90
20759;DHT22;10539;53.686;9.158;2023-07-13T09:37:58;22.40;99.90
20759;DHT22;10539;53.686;9.158;2023-07-13T09:40:33;22.50;99.90
20759;DHT22;10539;53.686;9.158;2023-07-13T09:43:01;22.70;99.90
20759;DHT22;10539;53.686;9.158;2023-07-13T09:45:32;22.80;99.90
20759;DHT22;10539;53.686;9.158;2023-07-13T09:48:07;22.80;99.90
20759;DHT22;10539;53.686;9.158;2023-07-13T09:50:34;22.70;99.90
20759;DHT22;10539;53.686;9.158;2023-07-13T09:53:01;22.70;99.90
20759;DHT22;10539;53.686;9.158;2023-07-13T09:57:56;22.70;99.90
20759;DHT22;10539;53.686;9.158;2023-07-13T10:00:25;22.70;99.90
20759;DHT22;10539;53.686;9.158;2023-07-13T10:03:09;22.60;99.90
20759;DHT22;10539;53.686;9.158;2023-07-13T10:05:42;22.40;99.90
20759;DHT22;10539;53.686;9.158;2023-07-13T10:08:21;22.30;99.90
20759;DHT22;10539;53.686;9.158;2023-07-13T10:10:53;22.20;99.90
20759;DHT22;10539;53.686;9.158;2023-07-13T10:13:35;22.20;99.90
20759;DHT22;10539;53.686;9.158;2023-07-13T10:16:06;22.10;99.90
20759;DHT22;10539;53.686;9.158;2023-07-13T10:18:54;22.10;99.90
20759;DHT22;10539;53.686;9.158;2023-07-13T10:21:23;22.20;99.90
20759;DHT22;10539;53.686;9.158;2023-07-13T10:24:11;22.30;99.90
20759;DHT22;10539;53.686;9.158;2023-07-13T10:26:46;22.50;99.90
20759;DHT22;10539;53.686;9.158;2023-07-13T10:29:14;22.60;99.90
20759;DHT22;10539;53.686;9.158;2023-07-13T10:31:41;22.60;99.90
20759;DHT22;10539;53.686;9.158;2023-07-13T10:34:13;22.70;99.90
20759;DHT22;10539;53.686;9.158;2023-07-13T10:36:45;22.70;99.90
20759;DHT22;10539;53.686;9.158;2023-07-13T10:39:18;22.70;99.90
20759;DHT22;10539;53.686;9.158;2023-07-13T10:41:49;22.70;99.90
20759;DHT22;10539;53.686;9.158;2023-07-13T10:44:21;22.70;99.90
20759;DHT22;10539;53.686;9.158;2023-07-13T10:46:58;22.70;99.90
20759;DHT22;10539;53.686;9.158;2023-07-13T10:49:27;22.60;99.90
20759;DHT22;10539;53.686;9.158;2023-07-13T10:51:53;22.50;99.90
20759;DHT22;10539;53.686;9.158;2023-07-13T10:57:19;20.30;99.90
20759;DHT22;10539;53.686;9.158;2023-07-13T10:59:48;19.10;99.90
20759;DHT22;10539;53.686;9.158;2023-07-13T11:02:26;18.60;99.90
20759;DHT22;10539;53.686;9.158;2023-07-13T11:04:55;18.50;99.90
20759;DHT22;10539;53.686;9.158;2023-07-13T11:07:23;18.50;99.90
20759;DHT22;10539;53.686;9.158;2023-07-13T11:09:52;18.50;99.90
20759;DHT22;10539;53.686;9.158;2023-07-13T11:17:35;18.40;99.90
20759;DHT22;10539;53.686;9.158;2023-07-13T11:22:44;18.50;99.90
20759;DHT22;10539;53.686;9.158;2023-07-13T11:25:28;18.50;99.90
20759;DHT22;10539;53.686;9.158;2023-07-13T11:30:59;18.60;99.90
20759;DHT22;10539;53.686;9.158;2023-07-13T11:36:06;18.80;99.90
20759;DHT22;10539;53.686;9.158;2023-07-13T11:38:36;18.80;99.90
20759;DHT22;10539;53.686;9.158;2023-07-13T11:41:27;18.80;99.90
20759;DHT22;10539;53.686;9.158;2023-07-13T11:44:01;18.80;99.90
20759;DHT22;10539;53.686;9.158;2023-07-13T11:46:28;18.90;99.90
20759;DHT22;10539;53.686;9.158;2023-07-13T11:48:54;19.00;99.90
20759;DHT22;10539;53.686;9.158;2023-07-13T11:51:29;19.10;99.90
20759;DHT22;10539;53.686;9.158;2023-07-13T11:54:22;19.20;99.90
20759;DHT22;10539;53.686;9.158;2023-07-13T11:56:44;19.20;99.90
20759;DHT22;10539;53.686;9.158;2023-07-13T11:59:13;19.30;99.90
20759;DHT22;10539;53.686;9.158;2023-07-13T12:01:58;19.30;99.90
20759;DHT22;10539;53.686;9.158;2023-07-13T12:04:30;19.40;99.90
20759;DHT22;10539;53.686;9.158;2023-07-13T12:07:07;19.50;99.90
20759;DHT22;10539;53.686;9.158;2023-07-13T12:09:34;19.60;99.90
20759;DHT22;10539;53.686;9.158;2023-07-13T12:12:02;19.60;99.90
20759;DHT22;10539;53.686;9.158;2023-07-13T12:14:28;19.70;99.90
20759;DHT22;10539;53.686;9.158;2023-07-13T12:16:54;19.80;99.90
20759;DHT22;10539;53.686;9.158;2023-07-13T12:19:27;19.90;99.90
20759;DHT22;10539;53.686;9.158;2023-07-13T12:21:55;19.80;99.90
20759;DHT22;10539;53.686;9.158;2023-07-13T12:24:22;19.80;99.90
20759;DHT22;10539;53.686;9.158;2023-07-13T12:26:59;20.00;99.90
20759;DHT22;10539;53.686;9.158;2023-07-13T12:29:30;20.20;99.90
20759;DHT22;10539;53.686;9.158;2023-07-13T12:31:57;20.30;99.90
20759;DHT22;10539;53.686;9.158;2023-07-13T12:34:24;20.30;99.90
20759;DHT22;10539;53.686;9.158;2023-07-13T12:36:55;20.30;99.90
20759;DHT22;10539;53.686;9.158;2023-07-13T12:39:31;20.30;99.90
20759;DHT22;10539;53.686;9.158;2023-07-13T12:44:42;20.20;99.90
20759;DHT22;10539;53.686;9.158;2023-07-13T12:47:13;20.20;99.90
20759;DHT22;10539;53.686;9.158;2023-07-13T12:49:59;20.20;99.90
20759;DHT22;10539;53.686;9.158;2023-07-13T12:52:34;20.30;99.90
20759;DHT22;10539;53.686;9.158;2023-07-13T12:55:14;20.20;99.90
20759;DHT22;10539;53.686;9.158;2023-07-13T13:02:53;20.30;99.90
20759;DHT22;10539;53.686;9.158;2023-07-13T13:05:19;20.30;99.90
20759;DHT22;10539;53.686;9.158;2023-07-13T13:07:50;20.40;99.90
20759;DHT22;10539;53.686;9.158;2023-07-13T13:10:15;20.40;99.90
20759;DHT22;10539;53.686;9.158;2023-07-13T13:12:41;20.40;99.90
20759;DHT22;10539;53.686;9.158;2023-07-13T13:15:11;20.40;99.90
20759;DHT22;10539;53.686;9.158;2023-07-13T13:17:37;20.50;99.90
20759;DHT22;10539;53.686;9.158;2023-07-13T13:20:21;20.60;99.90
20759;DHT22;10539;53.686;9.158;2023-07-13T13:22:47;20.70;99.90
20759;DHT22;10539;53.686;9.158;2023-07-13T13:25:14;20.80;99.90
20759;DHT22;10539;53.686;9.158;2023-07-13T13:27:44;20.80;99.90
20759;DHT22;10539;53.686;9.158;2023-07-13T13:30:16;20.80;99.90
20759;DHT22;10539;53.686;9.158;2023-07-13T13:32:44;20.80;99.90
20759;DHT22;10539;53.686;9.158;2023-07-13T13:35:18;20.80;99.90
20759;DHT22;10539;53.686;9.158;2023-07-13T13:37:45;20.80;99.90
20759;DHT22;10539;53.686;9.158;2023-07-13T13:40:17;20.80;99.90
20759;DHT22;10539;53.686;9.158;2023-07-13T13:42:43;20.80;99.90
20759;DHT22;10539;53.686;9.158;2023-07-13T13:45:10;20.80;99.90
20759;DHT22;10539;53.686;9.158;2023-07-13T13:47:36;20.80;99.90
20759;DHT22;10539;53.686;9.158;2023-07-13T13:52:36;20.90;99.90
20759;DHT22;10539;53.686;9.158;2023-07-13T13:55:11;21.10;99.90
20759;DHT22;10539;53.686;9.158;2023-07-13T13:57:37;21.20;99.90
20759;DHT22;10539;53.686;9.158;2023-07-13T14:00:03;21.30;99.90
20759;DHT22;10539;53.686;9.158;2023-07-13T14:02:29;21.50;99.90
20759;DHT22;10539;53.686;9.158;2023-07-13T14:05:00;21.60;99.90
20759;DHT22;10539;53.686;9.158;2023-07-13T14:07:26;21.70;99.90
20759;DHT22;10539;53.686;9.158;2023-07-13T14:09:55;21.70;99.90
20759;DHT22;10539;53.686;9.158;2023-07-13T14:12:21;21.80;99.90
20759;DHT22;10539;53.686;9.158;2023-07-13T14:14:47;21.70;99.90
20759;DHT22;10539;53.686;9.158;2023-07-13T14:17:20;21.70;99.90
20759;DHT22;10539;53.686;9.158;2023-07-13T14:19:51;21.70;99.90
20759;DHT22;10539;53.686;9.158;2023-07-13T14:22:20;21.70;99.90
20759;DHT22;10539;53.686;9.158;2023-07-13T14:24:46;21.70;99.90
20759;DHT22;10539;53.686;9.158;2023-07-13T14:27:12;21.70;99.90
20759;DHT22;10539;53.686;9.158;2023-07-13T14:29:39;21.60;99.90
20759;DHT22;10539;53.686;9.158;2023-07-13T14:32:11;21.60;99.90
20759;DHT22;10539;53.686;9.158;2023-07-13T14:34:37;21.70;99.90
20759;DHT22;10539;53.686;9.158;2023-07-13T14:37:03;21.80;99.90
20759;DHT22;10539;53.686;9.158;2023-07-13T14:39:30;21.80;99.90
20759;DHT22;10539;53.686;9.158;2023-07-13T14:41:57;21.90;99.90
20759;DHT22;10539;53.686;9.158;2023-07-13T14:44:30;21.80;99.90
20759;DHT22;10539;53.686;9.158;2023-07-13T14:46:58;21.70;99.90
20759;DHT22;10539;53.686;9.158;2023-07-13T14:49:35;21.70;99.90
20759;DHT22;10539;53.686;9.158;2023-07-13T14:52:13;21.70;99.90
20759;DHT22;10539;53.686;9.158;2023-07-13T14:54:41;21.60;99.90
20759;DHT22;10539;53.686;9.158;2023-07-13T14:57:19;21.60;99.90
20759;DHT22;10539;53.686;9.158;2023-07-13T14:59:46;21.50;99.90
20759;DHT22;10539;53.686;9.158;2023-07-13T15:02:16;21.50;99.90
20759;DHT22;10539;53.686;9.158;2023-07-13T15:04:43;21.40;99.90
20759;DHT22;10539;53.686;9.158;2023-07-13T15:07:10;21.40;99.90
20759;DHT22;10539;53.686;9.158;2023-07-13T15:09:37;21.40;99.90
20759;DHT22;10539;53.686;9.158;2023-07-13T15:12:03;21.40;99.90
20759;DHT22;10539;53.686;9.158;2023-07-13T15:14:30;21.50;99.90
20759;DHT22;10539;53.686;9.158;2023-07-13T15:16:56;21.40;99.90
20759;DHT22;10539;53.686;9.158;2023-07-13T15:19:23;21.40;99.90
20759;DHT22;10539;53.686;9.158;2023-07-13T15:21:49;21.30;99.90
20759;DHT22;10539;53.686;9.158;2023-07-13T15:24:15;21.30;99.90
20759;DHT22;10539;53.686;9.158;2023-07-13T15:26:42;21.30;99.90
20759;DHT22;10539;53.686;9.158;2023-07-13T15:29:14;21.30;99.90
20759;DHT22;10539;53.686;9.158;2023-07-13T15:31:40;21.40;99.90
20759;DHT22;10539;53.686;9.158;2023-07-13T15:34:20;21.40;99.90
20759;DHT22;10539;53.686;9.158;2023-07-13T15:36:49;21.40;99.90
20759;DHT22;10539;53.686;9.158;2023-07-13T15:39:16;21.50;99.90
20759;DHT22;10539;53.686;9.158;2023-07-13T15:41:43;21.40;99.90
20759;DHT22;10539;53.686;9.158;2023-07-13T15:44:30;21.40;99.90
20759;DHT22;10539;53.686;9.158;2023-07-13T15:46:57;21.40;99.90
20759;DHT22;10539;53.686;9.158;2023-07-13T15:49:23;21.50;99.90
20759;DHT22;10539;53.686;9.158;2023-07-13T15:51:48;21.50;99.90
20759;DHT22;10539;53.686;9.158;2023-07-13T15:54:16;21.50;99.90
20759;DHT22;10539;53.686;9.158;2023-07-13T15:56:45;21.50;99.90
20759;DHT22;10539;53.686;9.158;2023-07-13T15:59:12;21.50;99.90
20759;DHT22;10539;53.686;9.158;2023-07-13T16:01:41;21.40;99.90
20759;DHT22;10539;53.686;9.158;2023-07-13T16:04:08;21.20;99.90
20759;DHT22;10539;53.686;9.158;2023-07-13T16:06:36;21.10;99.90
20759;DHT22;10539;53.686;9.158;2023-07-13T16:09:05;21.10;99.90
20759;DHT22;10539;53.686;9.158;2023-07-13T16:11:38;21.10;99.90
20759;DHT22;10539;53.686;9.158;2023-07-13T16:14:05;21.00;99.90
20759;DHT22;10539;53.686;9.158;2023-07-13T16:16:33;21.00;99.90
20759;DHT22;10539;53.686;9.158;2023-07-13T16:19:03;20.90;99.90
20759;DHT22;10539;53.686;9.158;2023-07-13T16:21:38;20.80;99.90
20759;DHT22;10539;53.686;9.158;2023-07-13T16:24:18;20.80;99.90